Columbus, Montana
Current Conditions -  °F | °C
As of 4:53 AM on Wednesday 26 Nov 2014 (Local Time) from KBIL Reporting Station
Light Snow Light Snow  
Wind Chill: 22°   Ceiling: 200
Heat Index: 28°   Visibility: 1mi
Dew Point: 28°   Wind: 6mph
Humidity: 100%   Direction: 230°SW
Pressure: 30.17"   Gusts: NA
Location:  45.64°N, 109.25°W
Report Text: KBIL 261153Z 23005KT 1SM R10L/P6000FT -SN BR BKN002 OVC008 M02/M02 A3017 RMK AO2 SFC VIS 1 1/2 SLP246 4/001 P0002 60006 70006 T10221022 10011 21022 56003 $
Loading
Personal Weather Stations






























Interactive Weather Map New forecast layout! Learn more

10-Day Weather Forecast

Advertisements
Track Severe Weather on mobile